Amboy, Indiana
Current Conditions -  °F | °C
As of 11:15 PM on Wednesday 28 Jan 2015 (Local Time) from KOKK Reporting Station
Clear Clear  
Wind Chill: -7°   Ceiling: Unl
Heat Index:   Visibility: 10mi
Dew Point: -6°   Wind: 20mph
Humidity: 64%   Direction: 170°S
Pressure: 30"   Gusts: 28mph
Location:  40.6°N, 85.93°W
Report Text: KOKK 290415Z AUTO 17017G24KT 10SM CLR 00/M06 A3000 RMK AO1
Loading
Personal Weather Stations






























Interactive Weather Map New forecast layout! Learn more

10-Day Weather Forecast

Advertisements
Track Severe Weather on mobile